sensor_id;sensor_type;location;lat;lon;timestamp;P1;durP1;ratioP1;P2;durP2;ratioP2
40256;SDS011;25977;45.462;9.210;2023-09-30T00:00:42;18.83;;;11.70;;
40256;SDS011;25977;45.462;9.210;2023-09-30T00:03:08;14.93;;;11.05;;
40256;SDS011;25977;45.462;9.210;2023-09-30T00:05:36;16.52;;;11.85;;
40256;SDS011;25977;45.462;9.210;2023-09-30T00:08:02;20.02;;;11.93;;
40256;SDS011;25977;45.462;9.210;2023-09-30T00:10:28;20.42;;;12.10;;
40256;SDS011;25977;45.462;9.210;2023-09-30T00:12:55;15.75;;;11.45;;
40256;SDS011;25977;45.462;9.210;2023-09-30T00:15:21;14.77;;;10.57;;
40256;SDS011;25977;45.462;9.210;2023-09-30T00:17:48;19.17;;;11.43;;
40256;SDS011;25977;45.462;9.210;2023-09-30T00:20:14;13.20;;;11.40;;
40256;SDS011;25977;45.462;9.210;2023-09-30T00:22:40;20.20;;;12.60;;
40256;SDS011;25977;45.462;9.210;2023-09-30T00:25:06;17.13;;;11.82;;
40256;SDS011;25977;45.462;9.210;2023-09-30T00:27:32;15.18;;;12.05;;
40256;SDS011;25977;45.462;9.210;2023-09-30T00:29:58;22.17;;;12.60;;
40256;SDS011;25977;45.462;9.210;2023-09-30T00:32:24;20.25;;;12.95;;
40256;SDS011;25977;45.462;9.210;2023-09-30T00:34:49;17.77;;;12.57;;
40256;SDS011;25977;45.462;9.210;2023-09-30T00:37:17;17.48;;;12.18;;
40256;SDS011;25977;45.462;9.210;2023-09-30T00:39:43;24.42;;;12.73;;
40256;SDS011;25977;45.462;9.210;2023-09-30T00:42:10;15.77;;;11.93;;
40256;SDS011;25977;45.462;9.210;2023-09-30T00:44:36;15.43;;;12.20;;
40256;SDS011;25977;45.462;9.210;2023-09-30T00:47:02;16.08;;;11.52;;
40256;SDS011;25977;45.462;9.210;2023-09-30T00:49:29;14.98;;;11.07;;
40256;SDS011;25977;45.462;9.210;2023-09-30T00:51:55;15.75;;;11.55;;
40256;SDS011;25977;45.462;9.210;2023-09-30T00:54:21;14.50;;;11.40;;
40256;SDS011;25977;45.462;9.210;2023-09-30T00:56:50;25.83;;;11.88;;
40256;SDS011;25977;45.462;9.210;2023-09-30T00:59:17;19.92;;;10.57;;
40256;SDS011;25977;45.462;9.210;2023-09-30T01:01:44;12.70;;;9.68;;
40256;SDS011;25977;45.462;9.210;2023-09-30T01:04:11;15.95;;;10.15;;
40256;SDS011;25977;45.462;9.210;2023-09-30T01:06:37;18.23;;;10.75;;
40256;SDS011;25977;45.462;9.210;2023-09-30T01:09:03;14.13;;;9.85;;
40256;SDS011;25977;45.462;9.210;2023-09-30T01:11:29;15.30;;;9.85;;
40256;SDS011;25977;45.462;9.210;2023-09-30T01:13:55;17.60;;;10.02;;
40256;SDS011;25977;45.462;9.210;2023-09-30T01:16:21;17.70;;;11.18;;
40256;SDS011;25977;45.462;9.210;2023-09-30T01:18:46;11.65;;;10.07;;
40256;SDS011;25977;45.462;9.210;2023-09-30T01:21:13;20.42;;;10.35;;
40256;SDS011;25977;45.462;9.210;2023-09-30T01:23:40;15.55;;;9.63;;
40256;SDS011;25977;45.462;9.210;2023-09-30T01:26:07;13.35;;;10.98;;
40256;SDS011;25977;45.462;9.210;2023-09-30T01:28:34;11.60;;;9.90;;
40256;SDS011;25977;45.462;9.210;2023-09-30T01:31:01;14.43;;;10.30;;
40256;SDS011;25977;45.462;9.210;2023-09-30T01:33:27;14.05;;;10.23;;
40256;SDS011;25977;45.462;9.210;2023-09-30T01:35:53;16.45;;;11.48;;
40256;SDS011;25977;45.462;9.210;2023-09-30T01:38:19;12.65;;;10.57;;
40256;SDS011;25977;45.462;9.210;2023-09-30T01:40:45;16.67;;;10.15;;
40256;SDS011;25977;45.462;9.210;2023-09-30T01:43:12;16.48;;;11.35;;
40256;SDS011;25977;45.462;9.210;2023-09-30T01:45:41;17.73;;;10.25;;
40256;SDS011;25977;45.462;9.210;2023-09-30T01:48:08;21.23;;;10.55;;
40256;SDS011;25977;45.462;9.210;2023-09-30T01:50:37;17.27;;;10.57;;
40256;SDS011;25977;45.462;9.210;2023-09-30T01:53:03;12.77;;;10.38;;
40256;SDS011;25977;45.462;9.210;2023-09-30T01:55:31;12.65;;;9.68;;
40256;SDS011;25977;45.462;9.210;2023-09-30T01:58:02;15.00;;;10.43;;
40256;SDS011;25977;45.462;9.210;2023-09-30T02:00:28;15.82;;;11.45;;
40256;SDS011;25977;45.462;9.210;2023-09-30T02:02:55;17.80;;;10.05;;
40256;SDS011;25977;45.462;9.210;2023-09-30T02:05:22;15.82;;;9.98;;
40256;SDS011;25977;45.462;9.210;2023-09-30T02:07:49;13.02;;;10.98;;
40256;SDS011;25977;45.462;9.210;2023-09-30T02:10:16;13.90;;;10.77;;
40256;SDS011;25977;45.462;9.210;2023-09-30T02:12:43;15.35;;;10.88;;
40256;SDS011;25977;45.462;9.210;2023-09-30T02:15:11;13.60;;;10.18;;
40256;SDS011;25977;45.462;9.210;2023-09-30T02:17:37;17.33;;;10.57;;
40256;SDS011;25977;45.462;9.210;2023-09-30T02:20:03;12.68;;;10.65;;
40256;SDS011;25977;45.462;9.210;2023-09-30T02:22:32;12.10;;;9.93;;
40256;SDS011;25977;45.462;9.210;2023-09-30T02:24:58;15.85;;;10.48;;
40256;SDS011;25977;45.462;9.210;2023-09-30T02:27:24;14.65;;;9.30;;
40256;SDS011;25977;45.462;9.210;2023-09-30T02:29:50;16.48;;;9.88;;
40256;SDS011;25977;45.462;9.210;2023-09-30T02:32:16;17.58;;;10.27;;
40256;SDS011;25977;45.462;9.210;2023-09-30T02:34:42;20.42;;;10.65;;
40256;SDS011;25977;45.462;9.210;2023-09-30T02:37:09;16.05;;;10.90;;
40256;SDS011;25977;45.462;9.210;2023-09-30T02:39:35;13.60;;;10.98;;
40256;SDS011;25977;45.462;9.210;2023-09-30T02:42:02;16.02;;;10.68;;
40256;SDS011;25977;45.462;9.210;2023-09-30T02:44:28;11.57;;;9.75;;
40256;SDS011;25977;45.462;9.210;2023-09-30T02:46:54;20.48;;;10.82;;
40256;SDS011;25977;45.462;9.210;2023-09-30T02:49:21;10.77;;;9.43;;
40256;SDS011;25977;45.462;9.210;2023-09-30T02:51:46;20.65;;;12.32;;
40256;SDS011;25977;45.462;9.210;2023-09-30T02:54:12;11.93;;;9.88;;
40256;SDS011;25977;45.462;9.210;2023-09-30T02:56:41;12.25;;;10.27;;
40256;SDS011;25977;45.462;9.210;2023-09-30T02:59:07;14.45;;;11.35;;
40256;SDS011;25977;45.462;9.210;2023-09-30T03:01:33;20.15;;;11.88;;
40256;SDS011;25977;45.462;9.210;2023-09-30T03:03:59;12.23;;;10.35;;
40256;SDS011;25977;45.462;9.210;2023-09-30T03:06:25;14.75;;;10.73;;
40256;SDS011;25977;45.462;9.210;2023-09-30T03:08:51;21.08;;;12.45;;
40256;SDS011;25977;45.462;9.210;2023-09-30T03:11:17;18.45;;;11.30;;
40256;SDS011;25977;45.462;9.210;2023-09-30T03:13:45;16.38;;;12.43;;
40256;SDS011;25977;45.462;9.210;2023-09-30T03:16:10;15.13;;;11.63;;
40256;SDS011;25977;45.462;9.210;2023-09-30T03:18:36;18.85;;;11.93;;
40256;SDS011;25977;45.462;9.210;2023-09-30T03:21:02;16.20;;;12.50;;
40256;SDS011;25977;45.462;9.210;2023-09-30T03:23:37;19.08;;;12.90;;
40256;SDS011;25977;45.462;9.210;2023-09-30T03:26:03;17.27;;;11.77;;
40256;SDS011;25977;45.462;9.210;2023-09-30T03:28:30;16.40;;;12.60;;
40256;SDS011;25977;45.462;9.210;2023-09-30T03:30:56;15.75;;;10.85;;
40256;SDS011;25977;45.462;9.210;2023-09-30T03:33:21;12.70;;;11.43;;
40256;SDS011;25977;45.462;9.210;2023-09-30T03:35:47;44.08;;;13.30;;
40256;SDS011;25977;45.462;9.210;2023-09-30T03:38:13;14.68;;;11.10;;
40256;SDS011;25977;45.462;9.210;2023-09-30T03:40:42;15.98;;;11.45;;
40256;SDS011;25977;45.462;9.210;2023-09-30T03:43:12;12.48;;;10.98;;
40256;SDS011;25977;45.462;9.210;2023-09-30T03:45:41;18.50;;;12.23;;
40256;SDS011;25977;45.462;9.210;2023-09-30T03:48:07;15.70;;;12.05;;
40256;SDS011;25977;45.462;9.210;2023-09-30T03:50:34;15.73;;;11.98;;
40256;SDS011;25977;45.462;9.210;2023-09-30T03:53:03;18.45;;;12.48;;
40256;SDS011;25977;45.462;9.210;2023-09-30T03:55:30;20.55;;;11.75;;
40256;SDS011;25977;45.462;9.210;2023-09-30T03:57:57;20.98;;;12.73;;
40256;SDS011;25977;45.462;9.210;2023-09-30T04:00:24;18.20;;;12.93;;
40256;SDS011;25977;45.462;9.210;2023-09-30T04:02:53;17.83;;;11.10;;
40256;SDS011;25977;45.462;9.210;2023-09-30T04:05:23;18.13;;;11.43;;
40256;SDS011;25977;45.462;9.210;2023-09-30T04:07:57;15.93;;;12.38;;
40256;SDS011;25977;45.462;9.210;2023-09-30T04:10:23;18.27;;;11.95;;
40256;SDS011;25977;45.462;9.210;2023-09-30T04:12:49;16.58;;;12.38;;
40256;SDS011;25977;45.462;9.210;2023-09-30T04:15:14;20.35;;;11.73;;
40256;SDS011;25977;45.462;9.210;2023-09-30T04:17:40;19.33;;;11.93;;
40256;SDS011;25977;45.462;9.210;2023-09-30T04:20:06;18.42;;;11.75;;
40256;SDS011;25977;45.462;9.210;2023-09-30T04:22:41;17.98;;;13.07;;
40256;SDS011;25977;45.462;9.210;2023-09-30T04:25:11;17.25;;;12.95;;
40256;SDS011;25977;45.462;9.210;2023-09-30T04:27:37;20.05;;;12.18;;
40256;SDS011;25977;45.462;9.210;2023-09-30T04:30:03;14.15;;;11.52;;
40256;SDS011;25977;45.462;9.210;2023-09-30T04:32:34;21.02;;;13.52;;
40256;SDS011;25977;45.462;9.210;2023-09-30T04:35:02;20.35;;;12.10;;
40256;SDS011;25977;45.462;9.210;2023-09-30T04:37:29;18.77;;;12.05;;
40256;SDS011;25977;45.462;9.210;2023-09-30T04:39:54;15.95;;;11.63;;
40256;SDS011;25977;45.462;9.210;2023-09-30T04:42:20;15.45;;;11.27;;
40256;SDS011;25977;45.462;9.210;2023-09-30T04:44:46;14.55;;;11.45;;
40256;SDS011;25977;45.462;9.210;2023-09-30T04:47:11;14.98;;;11.50;;
40256;SDS011;25977;45.462;9.210;2023-09-30T04:49:37;14.35;;;11.00;;
40256;SDS011;25977;45.462;9.210;2023-09-30T04:52:03;28.17;;;14.65;;
40256;SDS011;25977;45.462;9.210;2023-09-30T04:54:32;15.65;;;10.60;;
40256;SDS011;25977;45.462;9.210;2023-09-30T04:57:00;14.68;;;11.77;;
40256;SDS011;25977;45.462;9.210;2023-09-30T04:59:27;17.27;;;12.15;;
40256;SDS011;25977;45.462;9.210;2023-09-30T05:01:53;18.83;;;13.00;;
40256;SDS011;25977;45.462;9.210;2023-09-30T05:04:19;17.92;;;12.75;;
40256;SDS011;25977;45.462;9.210;2023-09-30T05:06:46;21.20;;;12.38;;
40256;SDS011;25977;45.462;9.210;2023-09-30T05:09:11;17.02;;;13.63;;
40256;SDS011;25977;45.462;9.210;2023-09-30T05:11:37;22.08;;;14.43;;
40256;SDS011;25977;45.462;9.210;2023-09-30T05:14:03;20.20;;;13.70;;
40256;SDS011;25977;45.462;9.210;2023-09-30T05:16:30;18.40;;;14.10;;
40256;SDS011;25977;45.462;9.210;2023-09-30T05:18:56;20.15;;;13.18;;
40256;SDS011;25977;45.462;9.210;2023-09-30T05:21:22;19.77;;;14.45;;
40256;SDS011;25977;45.462;9.210;2023-09-30T05:23:48;20.00;;;15.18;;
40256;SDS011;25977;45.462;9.210;2023-09-30T05:26:14;28.25;;;15.77;;
40256;SDS011;25977;45.462;9.210;2023-09-30T05:28:41;21.08;;;14.10;;
40256;SDS011;25977;45.462;9.210;2023-09-30T05:31:07;24.58;;;14.60;;
40256;SDS011;25977;45.462;9.210;2023-09-30T05:33:33;21.05;;;15.23;;
40256;SDS011;25977;45.462;9.210;2023-09-30T05:36:01;20.30;;;14.60;;
40256;SDS011;25977;45.462;9.210;2023-09-30T05:38:28;24.58;;;13.82;;
40256;SDS011;25977;45.462;9.210;2023-09-30T05:40:56;20.92;;;14.27;;
40256;SDS011;25977;45.462;9.210;2023-09-30T05:43:24;27.00;;;15.27;;
40256;SDS011;25977;45.462;9.210;2023-09-30T05:45:49;17.40;;;13.85;;
40256;SDS011;25977;45.462;9.210;2023-09-30T05:48:20;28.42;;;15.38;;
40256;SDS011;25977;45.462;9.210;2023-09-30T05:50:46;20.45;;;15.07;;
40256;SDS011;25977;45.462;9.210;2023-09-30T05:53:12;24.55;;;16.33;;
40256;SDS011;25977;45.462;9.210;2023-09-30T05:55:39;25.25;;;16.05;;
40256;SDS011;25977;45.462;9.210;2023-09-30T05:58:12;27.63;;;16.85;;
40256;SDS011;25977;45.462;9.210;2023-09-30T06:00:42;23.63;;;16.30;;
40256;SDS011;25977;45.462;9.210;2023-09-30T06:03:08;33.88;;;17.38;;
40256;SDS011;25977;45.462;9.210;2023-09-30T06:05:38;23.73;;;15.95;;
40256;SDS011;25977;45.462;9.210;2023-09-30T06:08:07;34.17;;;17.07;;
40256;SDS011;25977;45.462;9.210;2023-09-30T06:10:40;23.17;;;16.50;;
40256;SDS011;25977;45.462;9.210;2023-09-30T06:13:09;29.23;;;16.48;;
40256;SDS011;25977;45.462;9.210;2023-09-30T06:15:39;29.00;;;17.77;;
40256;SDS011;25977;45.462;9.210;2023-09-30T06:18:06;25.50;;;16.30;;
40256;SDS011;25977;45.462;9.210;2023-09-30T06:20:32;24.58;;;16.63;;
40256;SDS011;25977;45.462;9.210;2023-09-30T06:22:58;30.80;;;17.20;;
40256;SDS011;25977;45.462;9.210;2023-09-30T06:25:28;26.27;;;16.00;;
40256;SDS011;25977;45.462;9.210;2023-09-30T06:27:55;28.20;;;16.67;;
40256;SDS011;25977;45.462;9.210;2023-09-30T06:30:21;27.13;;;15.73;;
